sensor_id;sensor_type;location;lat;lon;timestamp;pressure;altitude;pressure_sealevel;temperature;humidity
77897;BME280;67092;64.282;21.056;2023-02-21T00:01:38;99554.92;;;20.91;24.53
77897;BME280;67092;64.282;21.056;2023-02-21T00:04:04;99560.96;;;20.42;24.81
77897;BME280;67092;64.282;21.056;2023-02-21T00:06:29;99565.02;;;20.36;25.24
77897;BME280;67092;64.282;21.056;2023-02-21T00:08:55;99567.68;;;20.91;24.62
77897;BME280;67092;64.282;21.056;2023-02-21T00:11:21;99571.66;;;20.69;24.88
77897;BME280;67092;64.282;21.056;2023-02-21T00:13:46;99572.54;;;20.44;25.13
77897;BME280;67092;64.282;21.056;2023-02-21T00:16:14;99575.69;;;20.86;24.74
77897;BME280;67092;64.282;21.056;2023-02-21T00:18:38;99580.64;;;20.73;24.91
77897;BME280;67092;64.282;21.056;2023-02-21T00:21:03;99587.55;;;20.45;25.10
77897;BME280;67092;64.282;21.056;2023-02-21T00:23:32;99591.91;;;20.96;24.70
77897;BME280;67092;64.282;21.056;2023-02-21T00:25:54;99597.37;;;20.96;24.62
77897;BME280;67092;64.282;21.056;2023-02-21T00:28:20;99605.36;;;20.65;24.90
77897;BME280;67092;64.282;21.056;2023-02-21T00:30:45;99609.10;;;20.95;24.48
77897;BME280;67092;64.282;21.056;2023-02-21T00:33:11;99612.76;;;20.84;24.68
77897;BME280;67092;64.282;21.056;2023-02-21T00:35:37;99614.76;;;20.99;24.66
77897;BME280;67092;64.282;21.056;2023-02-21T00:38:03;99622.68;;;21.18;24.22
77897;BME280;67092;64.282;21.056;2023-02-21T00:40:28;99629.46;;;21.04;24.36
77897;BME280;67092;64.282;21.056;2023-02-21T00:42:54;99636.48;;;20.89;24.67
77897;BME280;67092;64.282;21.056;2023-02-21T00:45:19;99640.78;;;20.85;24.74
77897;BME280;67092;64.282;21.056;2023-02-21T00:47:45;99647.65;;;20.65;24.87
77897;BME280;67092;64.282;21.056;2023-02-21T00:50:11;99655.14;;;20.34;24.96
77897;BME280;67092;64.282;21.056;2023-02-21T00:52:36;99658.47;;;20.82;24.54
77897;BME280;67092;64.282;21.056;2023-02-21T00:55:02;99662.82;;;20.55;24.82
77897;BME280;67092;64.282;21.056;2023-02-21T00:57:28;99666.72;;;20.49;24.98
77897;BME280;67092;64.282;21.056;2023-02-21T00:59:53;99666.66;;;21.25;24.37
77897;BME280;67092;64.282;21.056;2023-02-21T01:02:19;99676.66;;;20.74;24.70
77897;BME280;67092;64.282;21.056;2023-02-21T01:04:44;99678.48;;;21.18;24.44
77897;BME280;67092;64.282;21.056;2023-02-21T01:07:10;99681.23;;;21.08;24.23
77897;BME280;67092;64.282;21.056;2023-02-21T01:09:35;99687.90;;;20.96;24.20
77897;BME280;67092;64.282;21.056;2023-02-21T01:12:01;99690.04;;;21.09;24.18
77897;BME280;67092;64.282;21.056;2023-02-21T01:14:27;99696.89;;;20.99;24.44
77897;BME280;67092;64.282;21.056;2023-02-21T01:16:52;99700.42;;;20.94;24.51
77897;BME280;67092;64.282;21.056;2023-02-21T01:19:18;99704.49;;;20.67;24.79
77897;BME280;67092;64.282;21.056;2023-02-21T01:21:44;99709.65;;;20.92;24.61
77897;BME280;67092;64.282;21.056;2023-02-21T01:24:12;99710.84;;;21.16;24.30
77897;BME280;67092;64.282;21.056;2023-02-21T01:26:35;99717.75;;;20.44;24.98
77897;BME280;67092;64.282;21.056;2023-02-21T01:29:01;99721.54;;;20.59;24.57
77897;BME280;67092;64.282;21.056;2023-02-21T01:31:26;99726.30;;;20.90;24.17
77897;BME280;67092;64.282;21.056;2023-02-21T01:33:52;99730.17;;;20.87;24.27
77897;BME280;67092;64.282;21.056;2023-02-21T01:36:17;99732.11;;;20.77;24.29
77897;BME280;67092;64.282;21.056;2023-02-21T01:38:43;99739.81;;;20.18;25.09
77897;BME280;67092;64.282;21.056;2023-02-21T01:41:09;99742.73;;;20.86;24.24
77897;BME280;67092;64.282;21.056;2023-02-21T01:43:34;99748.53;;;20.85;24.52
77897;BME280;67092;64.282;21.056;2023-02-21T01:46:00;99754.13;;;20.73;24.33
77897;BME280;67092;64.282;21.056;2023-02-21T01:48:26;99756.84;;;20.42;24.77
77897;BME280;67092;64.282;21.056;2023-02-21T01:50:52;99760.35;;;20.53;24.66
77897;BME280;67092;64.282;21.056;2023-02-21T01:53:20;99768.07;;;20.33;24.82
77897;BME280;67092;64.282;21.056;2023-02-21T01:55:43;99772.46;;;20.06;25.09
77897;BME280;67092;64.282;21.056;2023-02-21T01:58:08;99776.40;;;20.57;24.60
77897;BME280;67092;64.282;21.056;2023-02-21T02:00:34;99779.87;;;21.27;24.02
77897;BME280;67092;64.282;21.056;2023-02-21T02:03:01;99786.88;;;21.08;23.87
77897;BME280;67092;64.282;21.056;2023-02-21T02:05:26;99796.60;;;19.93;24.67
77897;BME280;67092;64.282;21.056;2023-02-21T02:07:52;99799.44;;;20.39;24.54
77897;BME280;67092;64.282;21.056;2023-02-21T02:10:17;99800.25;;;20.70;24.36
77897;BME280;67092;64.282;21.056;2023-02-21T02:12:58;99805.62;;;20.61;24.49
77897;BME280;67092;64.282;21.056;2023-02-21T02:15:22;99812.84;;;20.01;25.00
77897;BME280;67092;64.282;21.056;2023-02-21T02:17:41;99815.35;;;20.83;24.27
77897;BME280;67092;64.282;21.056;2023-02-21T02:20:13;99821.09;;;20.08;24.65
77897;BME280;67092;64.282;21.056;2023-02-21T02:25:00;99823.16;;;20.67;24.09
77897;BME280;67092;64.282;21.056;2023-02-21T02:27:35;99833.83;;;20.28;24.51
77897;BME280;67092;64.282;21.056;2023-02-21T02:32:21;99849.07;;;20.32;24.28
77897;BME280;67092;64.282;21.056;2023-02-21T02:34:44;99856.65;;;20.81;24.08
77897;BME280;67092;64.282;21.056;2023-02-21T02:37:06;99858.89;;;20.46;24.14
77897;BME280;67092;64.282;21.056;2023-02-21T02:39:30;99863.27;;;20.77;24.17
77897;BME280;67092;64.282;21.056;2023-02-21T02:41:55;99866.74;;;20.18;24.43
77897;BME280;67092;64.282;21.056;2023-02-21T02:44:18;99873.35;;;20.13;24.61
77897;BME280;67092;64.282;21.056;2023-02-21T02:46:42;99875.80;;;20.83;23.86
77897;BME280;67092;64.282;21.056;2023-02-21T02:49:08;99879.53;;;20.60;24.04
77897;BME280;67092;64.282;21.056;2023-02-21T02:51:32;99886.93;;;20.36;24.44
77897;BME280;67092;64.282;21.056;2023-02-21T02:53:58;99893.75;;;20.87;24.05
77897;BME280;67092;64.282;21.056;2023-02-21T02:56:23;99894.77;;;20.47;24.11
77897;BME280;67092;64.282;21.056;2023-02-21T02:58:52;99902.36;;;21.14;23.69
77897;BME280;67092;64.282;21.056;2023-02-21T03:01:29;99905.78;;;21.06;23.85
77897;BME280;67092;64.282;21.056;2023-02-21T03:03:49;99906.22;;;21.06;23.75
77897;BME280;67092;64.282;21.056;2023-02-21T03:06:16;99915.42;;;21.33;23.49
77897;BME280;67092;64.282;21.056;2023-02-21T03:08:39;99924.49;;;21.07;23.49
77897;BME280;67092;64.282;21.056;2023-02-21T03:11:02;99930.38;;;21.09;23.46
77897;BME280;67092;64.282;21.056;2023-02-21T03:13:28;99935.20;;;20.66;23.90
77897;BME280;67092;64.282;21.056;2023-02-21T03:15:53;99941.48;;;20.88;23.85
77897;BME280;67092;64.282;21.056;2023-02-21T03:18:18;99951.17;;;20.53;23.89
77897;BME280;67092;64.282;21.056;2023-02-21T03:20:40;99957.71;;;20.26;24.25
77897;BME280;67092;64.282;21.056;2023-02-21T03:23:06;99965.48;;;21.09;23.87
77897;BME280;67092;64.282;21.056;2023-02-21T03:25:31;99973.27;;;20.95;23.77
77897;BME280;67092;64.282;21.056;2023-02-21T03:27:56;99977.59;;;20.88;23.57
77897;BME280;67092;64.282;21.056;2023-02-21T03:30:22;99982.30;;;20.92;23.76
77897;BME280;67092;64.282;21.056;2023-02-21T03:32:49;99986.52;;;21.24;23.24
77897;BME280;67092;64.282;21.056;2023-02-21T03:35:13;99991.22;;;20.90;23.56
77897;BME280;67092;64.282;21.056;2023-02-21T03:37:41;99998.48;;;20.33;23.84
77897;BME280;67092;64.282;21.056;2023-02-21T03:40:06;100003.54;;;20.61;23.93
77897;BME280;67092;64.282;21.056;2023-02-21T03:42:30;100010.24;;;20.70;23.91
77897;BME280;67092;64.282;21.056;2023-02-21T03:44:55;100014.56;;;20.71;23.84
77897;BME280;67092;64.282;21.056;2023-02-21T03:47:21;100020.84;;;21.24;23.36
77897;BME280;67092;64.282;21.056;2023-02-21T03:49:47;100026.11;;;20.99;23.60
77897;BME280;67092;64.282;21.056;2023-02-21T03:52:12;100033.73;;;20.05;24.27
77897;BME280;67092;64.282;21.056;2023-02-21T03:54:38;100042.81;;;20.41;24.08
77897;BME280;67092;64.282;21.056;2023-02-21T03:57:04;100047.42;;;20.40;24.09
77897;BME280;67092;64.282;21.056;2023-02-21T03:59:29;100052.16;;;20.94;23.47
77897;BME280;67092;64.282;21.056;2023-02-21T04:01:55;100058.94;;;20.43;24.06
77897;BME280;67092;64.282;21.056;2023-02-21T04:04:21;100066.12;;;20.38;24.12
77897;BME280;67092;64.282;21.056;2023-02-21T04:06:46;100067.96;;;20.21;24.14
77897;BME280;67092;64.282;21.056;2023-02-21T04:09:12;100076.47;;;20.26;23.97
77897;BME280;67092;64.282;21.056;2023-02-21T04:11:40;100081.45;;;20.31;24.14
77897;BME280;67092;64.282;21.056;2023-02-21T04:14:03;100088.28;;;20.42;24.18
77897;BME280;67092;64.282;21.056;2023-02-21T04:16:29;100093.07;;;20.66;24.00
77897;BME280;67092;64.282;21.056;2023-02-21T04:18:54;100098.60;;;20.41;23.94
77897;BME280;67092;64.282;21.056;2023-02-21T04:21:20;100106.46;;;20.54;23.86
77897;BME280;67092;64.282;21.056;2023-02-21T04:23:46;100110.81;;;20.57;23.81
77897;BME280;67092;64.282;21.056;2023-02-21T04:26:11;100119.21;;;20.21;23.98
77897;BME280;67092;64.282;21.056;2023-02-21T04:28:37;100123.75;;;20.50;23.72
77897;BME280;67092;64.282;21.056;2023-02-21T04:31:03;100126.32;;;20.46;24.03
77897;BME280;67092;64.282;21.056;2023-02-21T04:33:28;100131.14;;;20.36;23.88
77897;BME280;67092;64.282;21.056;2023-02-21T04:35:54;100135.87;;;19.74;24.23
77897;BME280;67092;64.282;21.056;2023-02-21T04:38:20;100144.34;;;20.76;23.82
77897;BME280;67092;64.282;21.056;2023-02-21T04:40:45;100152.00;;;20.85;23.43
77897;BME280;67092;64.282;21.056;2023-02-21T04:43:11;100154.78;;;21.10;23.23
77897;BME280;67092;64.282;21.056;2023-02-21T04:45:36;100157.30;;;21.33;23.02
77897;BME280;67092;64.282;21.056;2023-02-21T04:48:02;100163.07;;;19.86;23.86
77897;BME280;67092;64.282;21.056;2023-02-21T04:50:28;100167.24;;;20.80;23.26
77897;BME280;67092;64.282;21.056;2023-02-21T04:52:53;100172.91;;;20.96;23.27
77897;BME280;67092;64.282;21.056;2023-02-21T04:55:19;100178.04;;;20.87;23.26
77897;BME280;67092;64.282;21.056;2023-02-21T04:57:45;100185.25;;;20.57;23.45
77897;BME280;67092;64.282;21.056;2023-02-21T05:00:11;100192.78;;;20.63;23.55
77897;BME280;67092;64.282;21.056;2023-02-21T05:02:36;100196.30;;;20.76;23.18
77897;BME280;67092;64.282;21.056;2023-02-21T05:05:02;100203.22;;;20.33;23.53
77897;BME280;67092;64.282;21.056;2023-02-21T05:07:27;100208.59;;;20.94;23.22
77897;BME280;67092;64.282;21.056;2023-02-21T05:09:53;100213.62;;;20.18;23.33
77897;BME280;67092;64.282;21.056;2023-02-21T05:12:19;100217.72;;;20.97;23.20
77897;BME280;67092;64.282;21.056;2023-02-21T05:14:44;100224.19;;;20.70;23.51
77897;BME280;67092;64.282;21.056;2023-02-21T05:17:10;100226.11;;;20.53;23.70
77897;BME280;67092;64.282;21.056;2023-02-21T05:19:35;100227.60;;;20.25;23.92
77897;BME280;67092;64.282;21.056;2023-02-21T05:22:02;100232.03;;;20.06;23.83
77897;BME280;67092;64.282;21.056;2023-02-21T05:24:28;100238.58;;;20.43;23.73
77897;BME280;67092;64.282;21.056;2023-02-21T05:26:52;100243.38;;;20.47;23.69
77897;BME280;67092;64.282;21.056;2023-02-21T05:29:18;100251.94;;;20.83;23.69
77897;BME280;67092;64.282;21.056;2023-02-21T05:31:44;100259.14;;;20.25;23.67
77897;BME280;67092;64.282;21.056;2023-02-21T05:34:09;100263.11;;;21.26;23.32
77897;BME280;67092;64.282;21.056;2023-02-21T05:36:35;100270.14;;;20.10;24.02
77897;BME280;67092;64.282;21.056;2023-02-21T05:39:00;100274.26;;;20.95;23.28
77897;BME280;67092;64.282;21.056;2023-02-21T05:41:26;100286.29;;;20.29;23.73
77897;BME280;67092;64.282;21.056;2023-02-21T05:43:52;100291.22;;;20.87;23.08
77897;BME280;67092;64.282;21.056;2023-02-21T05:46:20;100299.65;;;20.03;23.72
77897;BME280;67092;64.282;21.056;2023-02-21T05:48:43;100305.23;;;20.65;23.44
77897;BME280;67092;64.282;21.056;2023-02-21T05:51:09;100310.84;;;20.70;23.43
77897;BME280;67092;64.282;21.056;2023-02-21T05:53:34;100316.47;;;20.15;23.74
77897;BME280;67092;64.282;21.056;2023-02-21T05:56:00;100322.13;;;20.08;23.78
77897;BME280;67092;64.282;21.056;2023-02-21T05:58:26;100326.51;;;20.38;23.61
77897;BME280;67092;64.282;21.056;2023-02-21T06:00:51;100333.46;;;20.25;23.69
77897;BME280;67092;64.282;21.056;2023-02-21T06:03:17;100337.90;;;20.30;23.73
77897;BME280;67092;64.282;21.056;2023-02-21T06:05:42;100339.12;;;20.40;23.67
77897;BME280;67092;64.282;21.056;2023-02-21T06:08:08;100347.76;;;20.18;23.91
77897;BME280;67092;64.282;21.056;2023-02-21T06:10:34;100347.78;;;20.70;23.26
77897;BME280;67092;64.282;21.056;2023-02-21T06:12:59;100351.16;;;20.52;23.37
77897;BME280;67092;64.282;21.056;2023-02-21T06:15:25;100355.06;;;20.23;23.56
77897;BME280;67092;64.282;21.056;2023-02-21T06:17:51;100356.36;;;20.76;23.01
77897;BME280;67092;64.282;21.056;2023-02-21T06:20:16;100359.48;;;20.49;23.94
77897;BME280;67092;64.282;21.056;2023-02-21T06:22:42;100370.14;;;20.36;23.75
77897;BME280;67092;64.282;21.056;2023-02-21T06:25:08;100377.17;;;19.94;24.44
77897;BME280;67092;64.282;21.056;2023-02-21T06:27:33;100381.10;;;21.02;23.67
77897;BME280;67092;64.282;21.056;2023-02-21T06:29:59;100385.19;;;20.65;23.41
77897;BME280;67092;64.282;21.056;2023-02-21T06:32:24;100393.38;;;20.44;23.73
77897;BME280;67092;64.282;21.056;2023-02-21T06:34:50;100395.31;;;21.12;23.08
77897;BME280;67092;64.282;21.056;2023-02-21T06:37:17;100401.25;;;20.94;23.13
77897;BME280;67092;64.282;21.056;2023-02-21T06:39:41;100409.82;;;20.59;23.58
77897;BME280;67092;64.282;21.056;2023-02-21T06:42:11;100417.08;;;20.34;23.67
77897;BME280;67092;64.282;21.056;2023-02-21T06:44:33;100425.60;;;20.46;23.41
77897;BME280;67092;64.282;21.056;2023-02-21T06:46:58;100428.41;;;21.28;22.61
77897;BME280;67092;64.282;21.056;2023-02-21T06:49:24;100436.67;;;20.63;23.11
77897;BME280;67092;64.282;21.056;2023-02-21T06:51:50;100444.67;;;20.54;23.26
77897;BME280;67092;64.282;21.056;2023-02-21T06:54:15;100457.13;;;20.60;23.06
77897;BME280;67092;64.282;21.056;2023-02-21T06:56:41;100460.73;;;20.42;23.16
77897;BME280;67092;64.282;21.056;2023-02-21T06:59:06;100470.22;;;20.69;22.93
77897;BME280;67092;64.282;21.056;2023-02-21T07:01:32;100478.47;;;20.98;22.57
77897;BME280;67092;64.282;21.056;2023-02-21T07:03:58;100483.37;;;20.15;23.28
77897;BME280;67092;64.282;21.056;2023-02-21T07:06:23;100487.02;;;20.51;22.91
77897;BME280;67092;64.282;21.056;2023-02-21T07:08:49;100489.34;;;20.24;23.11
77897;BME280;67092;64.282;21.056;2023-02-21T07:11:16;100494.06;;;20.67;22.84
77897;BME280;67092;64.282;21.056;2023-02-21T07:13:41;100496.01;;;20.67;23.05
77897;BME280;67092;64.282;21.056;2023-02-21T07:16:06;100501.52;;;20.51;22.68
77897;BME280;67092;64.282;21.056;2023-02-21T07:18:32;100512.53;;;19.96;23.11
77897;BME280;67092;64.282;21.056;2023-02-21T07:20:57;100511.39;;;20.77;22.43
77897;BME280;67092;64.282;21.056;2023-02-21T07:23:23;100517.68;;;20.63;22.68
77897;BME280;67092;64.282;21.056;2023-02-21T07:25:49;100522.61;;;20.64;22.69
77897;BME280;67092;64.282;21.056;2023-02-21T07:28:14;100526.32;;;20.94;22.37
77897;BME280;67092;64.282;21.056;2023-02-21T07:30:40;100531.95;;;20.90;22.17
77897;BME280;67092;64.282;21.056;2023-02-21T07:33:05;100534.15;;;21.54;21.98
77897;BME280;67092;64.282;21.056;2023-02-21T07:35:31;100537.68;;;20.90;22.06
77897;BME280;67092;64.282;21.056;2023-02-21T07:37:57;100543.47;;;20.79;22.32
77897;BME280;67092;64.282;21.056;2023-02-21T07:40:23;100545.96;;;20.85;22.05
77897;BME280;67092;64.282;21.056;2023-02-21T07:42:48;100556.28;;;19.98;22.69
77897;BME280;67092;64.282;21.056;2023-02-21T07:45:15;100564.21;;;19.75;22.90
77897;BME280;67092;64.282;21.056;2023-02-21T07:47:39;100570.21;;;20.38;22.35
77897;BME280;67092;64.282;21.056;2023-02-21T07:50:06;100577.82;;;19.91;22.66
77897;BME280;67092;64.282;21.056;2023-02-21T07:52:31;100582.78;;;19.94;22.83
77897;BME280;67092;64.282;21.056;2023-02-21T07:54:56;100580.32;;;20.20;22.29
77897;BME280;67092;64.282;21.056;2023-02-21T07:57:22;100583.65;;;20.07;22.47
77897;BME280;67092;64.282;21.056;2023-02-21T07:59:48;100586.87;;;20.82;21.95
77897;BME280;67092;64.282;21.056;2023-02-21T08:02:14;100588.72;;;20.90;21.70
77897;BME280;67092;64.282;21.056;2023-02-21T08:04:39;100588.93;;;20.81;21.93
77897;BME280;67092;64.282;21.056;2023-02-21T08:07:05;100595.23;;;19.96;22.40
77897;BME280;67092;64.282;21.056;2023-02-21T08:09:30;100597.43;;;20.38;22.04
77897;BME280;67092;64.282;21.056;2023-02-21T08:11:56;100601.97;;;20.67;21.68
77897;BME280;67092;64.282;21.056;2023-02-21T08:14:21;100607.58;;;20.60;21.81
77897;BME280;67092;64.282;21.056;2023-02-21T08:16:47;100610.07;;;20.32;21.96
77897;BME280;67092;64.282;21.056;2023-02-21T08:19:13;100613.92;;;20.49;21.84
77897;BME280;67092;64.282;21.056;2023-02-21T08:21:39;100617.87;;;19.87;22.38
77897;BME280;67092;64.282;21.056;2023-02-21T08:24:04;100619.34;;;20.63;21.69
77897;BME280;67092;64.282;21.056;2023-02-21T08:26:29;100629.42;;;20.96;21.61
77897;BME280;67092;64.282;21.056;2023-02-21T08:28:55;100632.22;;;20.60;21.90
77897;BME280;67092;64.282;21.056;2023-02-21T08:31:21;100636.55;;;20.98;21.51
77897;BME280;67092;64.282;21.056;2023-02-21T08:33:47;100641.78;;;20.96;21.49
77897;BME280;67092;64.282;21.056;2023-02-21T08:36:12;100647.54;;;20.87;21.36
77897;BME280;67092;64.282;21.056;2023-02-21T08:38:38;100652.76;;;20.13;22.18
77897;BME280;67092;64.282;21.056;2023-02-21T08:41:04;100654.89;;;20.70;21.68
77897;BME280;67092;64.282;21.056;2023-02-21T08:43:29;100655.50;;;20.55;21.53
77897;BME280;67092;64.282;21.056;2023-02-21T08:45:55;100659.25;;;20.70;21.58
77897;BME280;67092;64.282;21.056;2023-02-21T08:48:20;100664.83;;;20.86;21.62
77897;BME280;67092;64.282;21.056;2023-02-21T08:50:46;100667.35;;;20.57;21.52
77897;BME280;67092;64.282;21.056;2023-02-21T08:53:13;100667.73;;;20.50;21.69
77897;BME280;67092;64.282;21.056;2023-02-21T08:55:37;100674.46;;;19.92;21.99
77897;BME280;67092;64.282;21.056;2023-02-21T08:58:03;100674.65;;;20.12;22.22
77897;BME280;67092;64.282;21.056;2023-02-21T09:00:29;100679.88;;;20.07;22.04
77897;BME280;67092;64.282;21.056;2023-02-21T09:02:55;100679.61;;;20.21;21.68
77897;BME280;67092;64.282;21.056;2023-02-21T09:05:22;100687.33;;;19.91;22.01
77897;BME280;67092;64.282;21.056;2023-02-21T09:07:47;100688.12;;;20.60;21.61
77897;BME280;67092;64.282;21.056;2023-02-21T09:10:11;100694.12;;;20.29;21.82
77897;BME280;67092;64.282;21.056;2023-02-21T09:12:37;100695.24;;;20.39;21.47
77897;BME280;67092;64.282;21.056;2023-02-21T09:15:03;100701.20;;;20.47;21.66
77897;BME280;67092;64.282;21.056;2023-02-21T09:17:28;100704.39;;;19.98;22.04
77897;BME280;67092;64.282;21.056;2023-02-21T09:19:54;100702.96;;;19.89;22.10
77897;BME280;67092;64.282;21.056;2023-02-21T09:22:19;100701.06;;;20.10;21.54
77897;BME280;67092;64.282;21.056;2023-02-21T09:24:45;100707.35;;;20.44;21.42
77897;BME280;67092;64.282;21.056;2023-02-21T09:27:10;100707.76;;;20.28;21.46
77897;BME280;67092;64.282;21.056;2023-02-21T09:29:36;100712.76;;;20.64;21.46
77897;BME280;67092;64.282;21.056;2023-02-21T09:32:02;100711.35;;;20.52;21.22
77897;BME280;67092;64.282;21.056;2023-02-21T09:34:28;100718.79;;;20.12;21.48
77897;BME280;67092;64.282;21.056;2023-02-21T09:36:53;100724.06;;;20.08;21.69
77897;BME280;67092;64.282;21.056;2023-02-21T09:39:19;100726.05;;;20.51;21.20
77897;BME280;67092;64.282;21.056;2023-02-21T09:41:44;100738.84;;;20.94;21.14
77897;BME280;67092;64.282;21.056;2023-02-21T09:44:16;100741.82;;;20.53;21.26
77897;BME280;67092;64.282;21.056;2023-02-21T09:46:39;100748.96;;;19.95;21.50
77897;BME280;67092;64.282;21.056;2023-02-21T09:49:06;100755.13;;;20.35;21.35
77897;BME280;67092;64.282;21.056;2023-02-21T09:51:27;100755.90;;;21.02;20.96
77897;BME280;67092;64.282;21.056;2023-02-21T09:53:55;100763.71;;;20.86;20.89
77897;BME280;67092;64.282;21.056;2023-02-21T09:56:27;100766.41;;;20.67;21.24
77897;BME280;67092;64.282;21.056;2023-02-21T09:58:44;100768.49;;;20.20;21.41
77897;BME280;67092;64.282;21.056;2023-02-21T10:01:19;100774.70;;;20.61;21.26
77897;BME280;67092;64.282;21.056;2023-02-21T10:03:43;100773.82;;;20.54;21.06
77897;BME280;67092;64.282;21.056;2023-02-21T10:06:08;100776.59;;;21.29;20.73
77897;BME280;67092;64.282;21.056;2023-02-21T10:08:33;100779.96;;;19.96;21.47
77897;BME280;67092;64.282;21.056;2023-02-21T10:10:54;100785.15;;;20.28;21.16
77897;BME280;67092;64.282;21.056;2023-02-21T10:13:30;100793.62;;;20.35;20.97
77897;BME280;67092;64.282;21.056;2023-02-21T10:15:47;100791.70;;;20.73;21.09
77897;BME280;67092;64.282;21.056;2023-02-21T10:18:18;100796.40;;;20.19;21.22
77897;BME280;67092;64.282;21.056;2023-02-21T10:20:40;100798.55;;;20.17;21.23
77897;BME280;67092;64.282;21.056;2023-02-21T10:23:01;100809.55;;;20.92;20.67
77897;BME280;67092;64.282;21.056;2023-02-21T10:25:28;100814.92;;;20.26;20.90
77897;BME280;67092;64.282;21.056;2023-02-21T10:27:52;100817.19;;;20.27;21.09
77897;BME280;67092;64.282;21.056;2023-02-21T10:30:25;100818.49;;;20.37;20.91
77897;BME280;67092;64.282;21.056;2023-02-21T10:32:43;100825.44;;;20.10;20.99
77897;BME280;67092;64.282;21.056;2023-02-21T10:35:09;100829.01;;;20.26;20.81
77897;BME280;67092;64.282;21.056;2023-02-21T10:37:38;100832.81;;;20.47;20.70
77897;BME280;67092;64.282;21.056;2023-02-21T10:40:03;100839.80;;;20.49;20.77
77897;BME280;67092;64.282;21.056;2023-02-21T10:42:30;100842.97;;;20.08;20.89
77897;BME280;67092;64.282;21.056;2023-02-21T10:44:52;100844.46;;;20.33;20.85
77897;BME280;67092;64.282;21.056;2023-02-21T10:47:22;100845.37;;;20.47;20.75
77897;BME280;67092;64.282;21.056;2023-02-21T10:49:49;100853.21;;;20.50;20.64
77897;BME280;67092;64.282;21.056;2023-02-21T10:52:10;100857.52;;;20.91;20.42
77897;BME280;67092;64.282;21.056;2023-02-21T10:54:34;100860.42;;;20.41;20.71
77897;BME280;67092;64.282;21.056;2023-02-21T10:56:59;100861.35;;;20.01;20.79
77897;BME280;67092;64.282;21.056;2023-02-21T10:59:27;100864.85;;;20.67;20.46
77897;BME280;67092;64.282;21.056;2023-02-21T11:01:52;100871.52;;;20.37;20.57
77897;BME280;67092;64.282;21.056;2023-02-21T11:04:25;100877.38;;;20.58;20.58
77897;BME280;67092;64.282;21.056;2023-02-21T11:06:45;100882.69;;;20.36;20.53
77897;BME280;67092;64.282;21.056;2023-02-21T11:09:23;100884.27;;;20.87;20.21
77897;BME280;67092;64.282;21.056;2023-02-21T11:11:35;100887.88;;;20.53;20.50
77897;BME280;67092;64.282;21.056;2023-02-21T11:16:24;100889.15;;;20.48;20.32
77897;BME280;67092;64.282;21.056;2023-02-21T11:21:18;100891.67;;;20.20;20.40
77897;BME280;67092;64.282;21.056;2023-02-21T11:23:46;100893.98;;;19.84;20.55
77897;BME280;67092;64.282;21.056;2023-02-21T11:26:08;100900.07;;;20.20;20.57
77897;BME280;67092;64.282;21.056;2023-02-21T11:28:36;100904.19;;;21.82;19.60
77897;BME280;67092;64.282;21.056;2023-02-21T11:31:10;100903.21;;;20.12;20.64
77897;BME280;67092;64.282;21.056;2023-02-21T11:33:24;100906.86;;;20.52;20.21
77897;BME280;67092;64.282;21.056;2023-02-21T11:35:51;100913.58;;;20.47;20.34
77897;BME280;67092;64.282;21.056;2023-02-21T11:38:29;100921.63;;;20.44;20.41
77897;BME280;67092;64.282;21.056;2023-02-21T11:40:43;100925.95;;;20.39;20.44
77897;BME280;67092;64.282;21.056;2023-02-21T11:43:12;100930.69;;;20.45;20.34
77897;BME280;67092;64.282;21.056;2023-02-21T11:45:33;100931.54;;;20.61;20.19
77897;BME280;67092;64.282;21.056;2023-02-21T11:48:00;100935.81;;;20.72;20.14
77897;BME280;67092;64.282;21.056;2023-02-21T11:50:25;100940.67;;;21.13;19.90
77897;BME280;67092;64.282;21.056;2023-02-21T11:52:52;100942.71;;;20.15;20.31
77897;BME280;67092;64.282;21.056;2023-02-21T11:55:16;100946.78;;;21.01;19.87
77897;BME280;67092;64.282;21.056;2023-02-21T11:57:43;100946.23;;;20.54;20.36
77897;BME280;67092;64.282;21.056;2023-02-21T12:00:15;100949.65;;;20.39;20.16
77897;BME280;67092;64.282;21.056;2023-02-21T12:02:41;100956.22;;;20.37;20.20
77897;BME280;67092;64.282;21.056;2023-02-21T12:05:05;100964.36;;;20.46;19.99
77897;BME280;67092;64.282;21.056;2023-02-21T12:07:29;100964.11;;;20.81;19.87
77897;BME280;67092;64.282;21.056;2023-02-21T12:09:54;100962.61;;;20.72;20.03
77897;BME280;67092;64.282;21.056;2023-02-21T12:12:24;100963.67;;;20.67;20.04
77897;BME280;67092;64.282;21.056;2023-02-21T12:14:50;100966.80;;;20.49;20.13
77897;BME280;67092;64.282;21.056;2023-02-21T12:17:15;100969.43;;;20.60;19.91
77897;BME280;67092;64.282;21.056;2023-02-21T12:19:42;100974.56;;;20.13;20.33
77897;BME280;67092;64.282;21.056;2023-02-21T12:22:02;100981.79;;;20.74;20.01
77897;BME280;67092;64.282;21.056;2023-02-21T12:26:52;100986.41;;;20.83;19.63
77897;BME280;67092;64.282;21.056;2023-02-21T12:29:25;100988.62;;;20.74;19.87
77897;BME280;67092;64.282;21.056;2023-02-21T12:31:49;100990.80;;;20.32;20.04
77897;BME280;67092;64.282;21.056;2023-02-21T12:34:17;100994.16;;;20.63;20.01
77897;BME280;67092;64.282;21.056;2023-02-21T12:36:40;100996.34;;;20.50;19.84
77897;BME280;67092;64.282;21.056;2023-02-21T12:39:04;100994.52;;;20.67;19.92
77897;BME280;67092;64.282;21.056;2023-02-21T12:41:32;101001.83;;;20.49;20.00
77897;BME280;67092;64.282;21.056;2023-02-21T12:43:53;101007.97;;;20.36;20.09
77897;BME280;67092;64.282;21.056;2023-02-21T12:46:18;101007.15;;;20.39;19.91